Time;durP1;ratioP1;P1;durP2;ratioP2;P2;SDS_P1;SDS_P2;PMS_P1;PMS_P2;Temp;Humidity;BMP_temperature;BMP_pressure;BME280_temperature;BME280_humidity;BME280_pressure;Samples;Min_cycle;Max_cycle;Signal;HPM_P1;HPM_P2
2022/02/04 00:05:58;;;;;;;8.97;7.83;;;8.10;99.90;;;;;;5014178;28;20491;-88
2022/02/04 00:21:24;;;;;;;10.77;7.47;;;8.00;99.90;;;;;;5035189;28;20509;-89
2022/02/04 00:24:13;;;;;;;10.83;8.30;;;8.00;99.90;;;;;;5029247;28;20591;-88
2022/02/04 00:27:07;;;;;;;13.57;8.50;;;8.00;99.90;;;;;;5028232;28;20495;-88
2022/02/04 00:29:59;;;;;;;11.73;7.30;;;8.00;99.90;;;;;;5028184;28;20834;-89
2022/02/04 00:32:47;;;;;;;9.37;7.10;;;8.00;99.90;;;;;;5032145;28;20481;-89
2022/02/04 00:35:46;;;;;;;10.77;7.30;;;8.00;99.90;;;;;;5023800;28;20449;-88
2022/02/04 00:38:35;;;;;;;11.40;7.60;;;8.00;99.90;;;;;;5023926;28;20463;-89
2022/02/04 00:41:25;;;;;;;9.13;7.10;;;8.00;99.90;;;;;;5034394;28;20592;-89
2022/02/04 00:44:19;;;;;;;9.57;7.60;;;8.00;99.90;;;;;;5032819;28;20450;-89
2022/02/04 00:47:10;;;;;;;9.47;7.20;;;8.00;99.90;;;;;;5021973;28;20432;-88
2022/02/04 00:50:03;;;;;;;11.60;7.30;;;8.00;99.90;;;;;;5027480;28;20566;-88
2022/02/04 00:53:02;;;;;;;11.30;7.93;;;8.00;99.90;;;;;;5031052;28;20524;-88
2022/02/04 00:56:02;;;;;;;9.15;7.35;;;7.90;99.90;;;;;;5029318;28;20445;-89
2022/02/04 01:26:46;;;;;;;10.13;7.03;;;8.00;99.90;;;;;;5030315;28;20447;-88
2022/02/04 01:29:38;;;;;;;10.83;7.43;;;8.00;99.90;;;;;;5036252;28;20454;-88
2022/02/04 01:32:24;;;;;;;9.70;6.33;;;8.00;99.90;;;;;;5030347;28;20449;-88
2022/02/04 01:35:11;;;;;;;9.27;6.60;;;8.00;99.90;;;;;;5025362;28;20446;-88
2022/02/04 01:37:57;;;;;;;9.33;6.63;;;8.00;99.90;;;;;;5028760;28;20454;-87
2022/02/04 01:40:42;;;;;;;11.17;7.50;;;8.00;99.90;;;;;;5035990;28;20523;-88
2022/02/04 01:43:28;;;;;;;9.30;6.63;;;7.90;99.90;;;;;;5033245;28;20841;-89
2022/02/04 01:46:14;;;;;;;10.93;7.20;;;7.80;99.90;;;;;;5041960;28;20436;-88
2022/02/04 01:49:00;;;;;;;8.43;6.73;;;7.90;99.90;;;;;;5034575;28;21025;-88
2022/02/04 01:51:48;;;;;;;8.43;6.27;;;7.90;99.90;;;;;;5022616;28;20965;-88
2022/02/04 01:54:34;;;;;;;10.13;6.67;;;8.00;99.90;;;;;;5025171;28;20480;-88
2022/02/04 01:57:19;;;;;;;10.10;6.60;;;8.00;99.90;;;;;;5022788;28;20445;-87
2022/02/04 02:00:06;;;;;;;10.23;7.27;;;8.00;99.90;;;;;;5040405;28;20451;-88
2022/02/04 02:02:52;;;;;;;9.57;6.67;;;8.00;99.90;;;;;;5033050;28;20977;-88
2022/02/04 02:05:38;;;;;;;9.70;6.27;;;7.90;99.90;;;;;;5027990;28;20447;-88
2022/02/04 02:08:25;;;;;;;16.20;5.70;;;7.80;99.90;;;;;;5042484;22;20485;-71
2022/02/04 02:11:10;;;;;;;11.40;6.20;;;7.80;99.90;;;;;;5016701;28;20469;-71
2022/02/04 02:13:56;;;;;;;8.17;6.57;;;7.90;99.90;;;;;;5021744;28;20198;-71
2022/02/04 02:44:24;;;;;;;9.63;6.20;;;8.00;99.90;;;;;;5017146;28;20966;-71
2022/02/04 02:47:26;;;;;;;9.77;7.47;;;7.90;99.90;;;;;;5005353;28;20450;-71
2022/02/04 02:50:40;;;;;;;9.47;5.83;;;7.90;99.90;;;;;;5005689;28;20465;-71
2022/02/04 02:59:34;;;;;;;10.47;6.53;;;8.00;99.90;;;;;;5017503;28;20455;-71
2022/02/04 03:02:20;;;;;;;9.63;6.37;;;8.00;99.90;;;;;;5016787;28;20459;-71
2022/02/04 03:05:06;;;;;;;9.73;7.60;;;8.00;99.90;;;;;;5016274;28;20812;-71
2022/02/04 03:07:52;;;;;;;8.90;6.43;;;8.10;99.90;;;;;;5009956;28;20979;-71
2022/02/04 03:10:39;;;;;;;16.10;8.27;;;8.10;99.90;;;;;;5018617;28;20456;-71
2022/02/04 03:13:27;;;;;;;13.40;7.70;;;8.00;99.90;;;;;;5017084;28;20453;-71
2022/02/04 03:16:16;;;;;;;12.83;9.30;;;8.10;99.90;;;;;;5011567;28;20553;-71
2022/02/04 03:19:04;;;;;;;15.50;9.03;;;8.00;99.90;;;;;;5017963;28;22179;-71
2022/02/04 03:21:50;;;;;;;12.07;8.50;;;8.00;99.90;;;;;;5014096;28;20465;-71
2022/02/04 03:24:36;;;;;;;11.40;8.50;;;7.90;99.90;;;;;;5019020;28;20942;-71
2022/02/04 03:27:31;;;;;;;13.17;8.27;;;7.90;99.90;;;;;;5010225;28;20524;-72
2022/02/04 03:30:22;;;;;;;14.03;9.17;;;8.00;99.90;;;;;;5011508;28;20452;-72
2022/02/04 03:33:08;;;;;;;11.47;8.17;;;8.00;99.90;;;;;;5014684;28;20437;-71
2022/02/04 03:35:54;;;;;;;12.50;8.80;;;8.00;99.90;;;;;;5013963;28;20665;-71
2022/02/04 03:38:40;;;;;;;16.90;8.90;;;7.90;99.90;;;;;;5016263;28;20454;-71
2022/02/04 03:41:25;;;;;;;12.33;8.00;;;7.90;99.90;;;;;;5019480;28;20579;-71
2022/02/04 03:44:12;;;;;;;11.82;9.20;;;8.00;99.90;;;;;;5018889;28;20494;-71
2022/02/04 03:46:58;;;;;;;12.20;8.50;;;8.00;99.90;;;;;;5010106;28;20198;-71
2022/02/04 03:49:43;;;;;;;15.57;8.47;;;8.00;99.90;;;;;;5015109;28;21096;-71
2022/02/04 03:52:29;;;;;;;11.00;8.40;;;8.00;99.90;;;;;;5022239;28;20432;-71
2022/02/04 03:55:15;;;;;;;12.43;8.40;;;7.90;99.90;;;;;;5013990;28;20491;-71
2022/02/04 03:58:00;;;;;;;13.73;9.30;;;7.90;99.90;;;;;;5014818;28;21062;-71
2022/02/04 04:00:48;;;;;;;12.17;8.07;;;8.00;99.90;;;;;;5010587;28;20610;-71
2022/02/04 04:03:33;;;;;;;12.40;7.97;;;8.00;99.90;;;;;;5015984;28;21054;-71
2022/02/04 04:06:19;;;;;;;13.70;8.90;;;8.00;99.90;;;;;;5011448;28;20437;-71
2022/02/04 04:09:05;;;;;;;18.63;9.30;;;8.00;99.90;;;;;;5017524;28;20461;-71
2022/02/04 04:11:51;;;;;;;15.43;9.50;;;8.00;99.90;;;;;;5010375;28;20481;-71
2022/02/04 04:14:36;;;;;;;14.00;9.40;;;7.90;99.90;;;;;;5014114;28;20589;-71
2022/02/04 04:17:24;;;;;;;10.47;8.00;;;7.80;99.90;;;;;;5012231;28;20870;-72
2022/02/04 04:20:12;;;;;;;13.10;8.23;;;7.80;99.90;;;;;;5020230;28;20473;-73
2022/02/04 04:22:59;;;;;;;12.83;9.10;;;7.80;99.90;;;;;;5016416;28;20302;-72
2022/02/04 04:25:45;;;;;;;12.13;8.33;;;7.90;99.90;;;;;;5005705;28;20777;-73
2022/02/04 04:28:30;;;;;;;12.93;9.40;;;7.90;99.90;;;;;;5013592;28;20444;-73
2022/02/04 04:31:18;;;;;;;13.60;8.50;;;7.90;99.90;;;;;;5016472;28;20506;-72
2022/02/04 04:34:06;;;;;;;16.37;9.07;;;7.90;99.90;;;;;;5017299;28;20527;-72
2022/02/04 04:36:52;;;;;;;13.33;8.73;;;7.90;99.90;;;;;;5010341;28;20983;-72
2022/02/04 04:39:48;;;;;;;12.90;8.40;;;7.90;99.90;;;;;;5021919;28;20960;-72
2022/02/04 04:42:49;;;;;;;11.10;8.63;;;7.90;99.90;;;;;;5016360;28;20993;-72
2022/02/04 05:28:35;;;;;;;7.97;6.33;;;7.80;99.90;;;;;;5014068;28;20465;-72
2022/02/04 05:31:21;;;;;;;9.67;6.80;;;7.70;99.90;;;;;;5018398;28;20437;-73
2022/02/04 05:34:07;;;;;;;7.40;5.60;;;7.70;99.90;;;;;;5020061;28;20437;-72
2022/02/04 05:37:00;;;;;;;9.33;5.93;;;7.70;99.90;;;;;;5016768;28;20938;-72
2022/02/04 05:39:54;;;;;;;8.63;6.63;;;7.70;99.90;;;;;;5016724;28;20517;-72
2022/02/04 05:42:46;;;;;;;7.87;6.63;;;7.60;99.90;;;;;;5021200;28;20463;-73
2022/02/04 05:45:35;;;;;;;11.47;7.90;;;7.60;99.90;;;;;;5012748;28;20771;-72
2022/02/04 05:48:22;;;;;;;12.63;6.20;;;7.60;99.90;;;;;;5020140;28;20466;-72
2022/02/04 05:51:28;;;;;;;6.63;5.77;;;7.60;99.90;;;;;;5025227;28;20819;-71
2022/02/04 05:54:20;;;;;;;7.40;6.43;;;7.70;99.90;;;;;;5009938;28;20417;-72
2022/02/04 05:57:13;;;;;;;9.20;6.50;;;7.70;99.90;;;;;;5021441;28;20514;-71
2022/02/04 06:00:17;;;;;;;8.00;5.60;;;7.70;99.90;;;;;;5020886;28;20440;-72
2022/02/04 06:03:25;;;;;;;7.37;5.43;;;7.70;99.90;;;;;;5022103;28;20525;-73
2022/02/04 06:06:28;;;;;;;8.03;5.53;;;7.70;99.90;;;;;;5020086;28;20419;-73
2022/02/04 06:09:47;;;;;;;8.33;6.63;;;7.70;99.90;;;;;;5019449;28;20583;-72
2022/02/04 06:24:40;;;;;;;8.10;6.03;;;7.70;99.90;;;;;;5007938;28;20473;-74
2022/02/04 06:27:27;;;;;;;8.90;6.20;;;7.70;99.90;;;;;;5017063;28;20593;-72
2022/02/04 06:30:15;;;;;;;7.83;6.83;;;7.70;99.90;;;;;;5020296;28;20467;-72
2022/02/04 06:33:01;;;;;;;8.70;6.60;;;7.70;99.90;;;;;;5019830;28;20529;-71
2022/02/04 06:35:47;;;;;;;12.90;6.10;;;7.70;99.90;;;;;;5013746;28;20581;-72
2022/02/04 06:38:32;;;;;;;8.20;6.07;;;7.60;99.90;;;;;;5019835;28;20441;-72
2022/02/04 06:41:18;;;;;;;8.27;6.37;;;7.60;99.90;;;;;;5015159;28;20442;-72
2022/02/04 06:44:04;;;;;;;9.20;5.90;;;7.60;99.90;;;;;;5013295;28;20678;-72
2022/02/04 06:46:51;;;;;;;8.03;6.20;;;7.70;99.90;;;;;;5021477;28;20445;-72
2022/02/04 06:49:37;;;;;;;8.00;5.10;;;7.70;99.90;;;;;;5018921;28;20466;-72
2022/02/04 06:52:22;;;;;;;6.95;5.80;;;7.60;99.90;;;;;;5017417;28;20900;-72
2022/02/04 06:55:08;;;;;;;7.23;5.93;;;7.60;99.90;;;;;;5017661;28;20582;-73
2022/02/04 06:57:56;;;;;;;13.60;8.20;;;7.60;99.90;;;;;;5016733;28;20517;-72
2022/02/04 07:00:42;;;;;;;9.57;6.37;;;7.50;99.90;;;;;;5014235;28;20604;-72
2022/02/04 07:03:30;;;;;;;8.70;6.13;;;7.60;99.90;;;;;;5014788;28;20535;-72
2022/02/04 07:06:17;;;;;;;7.63;6.00;;;7.60;99.90;;;;;;5023266;28;20445;-72
2022/02/04 07:09:21;;;;;;;10.90;6.10;;;7.60;99.90;;;;;;5012982;28;20461;-72
2022/02/04 07:21:17;;;;;;;8.10;6.27;;;7.50;99.90;;;;;;5013240;28;20458;-72
2022/02/04 07:24:02;;;;;;;10.70;6.80;;;7.50;99.90;;;;;;5003893;28;20927;-72
2022/02/04 07:26:48;;;;;;;7.97;6.10;;;7.40;99.90;;;;;;5009327;28;20582;-72
2022/02/04 07:29:34;;;;;;;8.50;6.07;;;7.50;99.90;;;;;;5009170;28;20464;-72
2022/02/04 07:32:26;;;;;;;12.20;7.40;;;7.50;99.90;;;;;;5013387;28;20907;-73
2022/02/04 07:35:31;;;;;;;8.47;7.00;;;7.50;99.90;;;;;;5015042;28;20545;-73
2022/02/04 07:38:49;;;;;;;12.20;8.13;;;7.50;99.90;;;;;;5016696;28;20814;-72
2022/02/04 07:41:35;;;;;;;20.30;10.90;;;7.50;99.90;;;;;;5018872;28;20504;-72
2022/02/04 07:44:20;;;;;;;9.10;7.13;;;7.50;99.90;;;;;;5013233;28;21043;-72
2022/02/04 07:47:06;;;;;;;10.93;7.97;;;7.40;99.90;;;;;;5014052;28;20556;-71
2022/02/04 07:49:52;;;;;;;10.40;7.00;;;7.50;99.90;;;;;;5018866;28;20511;-72
2022/02/04 07:52:37;;;;;;;9.50;7.00;;;7.50;99.90;;;;;;5007671;28;20520;-71
2022/02/04 07:55:25;;;;;;;11.63;7.63;;;7.50;99.90;;;;;;5015703;28;21074;-71
2022/02/04 07:58:12;;;;;;;11.90;8.00;;;7.50;99.90;;;;;;5017659;28;20661;-72
2022/02/04 08:00:59;;;;;;;13.13;6.83;;;7.60;99.90;;;;;;5024471;28;21047;-71
2022/02/04 08:03:52;;;;;;;15.17;8.20;;;7.60;99.90;;;;;;5009534;28;20487;-71
2022/02/04 08:06:42;;;;;;;10.68;7.95;;;7.60;99.90;;;;;;5015364;28;20438;-72
2022/02/04 08:09:36;;;;;;;8.30;6.47;;;7.60;99.90;;;;;;5014006;28;20736;-71
2022/02/04 08:12:38;;;;;;;11.20;8.03;;;7.50;99.90;;;;;;5011269;28;20265;-72
2022/02/04 08:15:40;;;;;;;10.17;7.93;;;7.50;99.90;;;;;;5020211;28;20982;-71
2022/02/04 08:18:57;;;;;;;8.77;6.70;;;7.50;99.90;;;;;;5020455;28;20476;-72
2022/02/04 08:21:57;;;;;;;10.83;8.03;;;7.60;99.90;;;;;;5013582;28;20453;-70
2022/02/04 08:25:00;;;;;;;12.23;8.57;;;7.60;99.90;;;;;;5017251;28;20817;-71
2022/02/04 08:31:16;;;;;;;9.20;7.40;;;7.60;99.90;;;;;;5015814;28;20748;-71
2022/02/04 08:46:52;;;;;;;10.20;7.10;;;7.60;99.90;;;;;;5031168;28;20417;-71
2022/02/04 08:52:52;;;;;;;9.70;6.90;;;7.70;99.90;;;;;;5008937;28;20461;-71
2022/02/04 08:55:45;;;;;;;8.60;6.70;;;7.70;99.90;;;;;;5017655;28;20930;-72
2022/02/04 08:58:35;;;;;;;8.43;6.10;;;7.70;99.90;;;;;;5019374;28;20571;-72
2022/02/04 09:01:26;;;;;;;10.17;6.60;;;7.70;99.90;;;;;;5015316;28;20457;-71
2022/02/04 09:04:16;;;;;;;8.70;6.33;;;7.70;99.90;;;;;;5017463;28;20467;-71
2022/02/04 09:07:06;;;;;;;8.10;6.20;;;7.80;99.90;;;;;;5017317;28;20469;-71
2022/02/04 09:09:54;;;;;;;10.20;6.77;;;7.80;99.90;;;;;;5020325;28;20543;-71
2022/02/04 09:18:59;;;;;;;7.03;5.30;;;7.60;99.90;;;;;;5019182;28;20443;-72
2022/02/04 09:22:05;;;;;;;7.30;5.30;;;7.60;99.90;;;;;;5013654;28;20462;-72
2022/02/04 09:24:51;;;;;;;7.60;5.33;;;7.60;99.90;;;;;;5019698;28;20813;-73
2022/02/04 09:27:37;;;;;;;7.80;5.90;;;7.60;99.90;;;;;;5017036;28;20938;-72
2022/02/04 09:30:25;;;;;;;6.77;4.80;;;7.60;99.90;;;;;;5015416;28;20505;-72
2022/02/04 09:33:13;;;;;;;8.43;4.60;;;7.70;99.90;;;;;;5018183;28;20461;-72
2022/02/04 09:35:58;;;;;;;7.17;5.03;;;7.70;99.90;;;;;;5018365;28;20551;-71
2022/02/04 09:38:44;;;;;;;6.20;5.10;;;7.70;99.90;;;;;;5015100;28;20540;-71
2022/02/04 09:41:30;;;;;;;5.63;4.80;;;7.70;99.90;;;;;;5012420;28;20978;-71
2022/02/04 09:44:16;;;;;;;5.80;4.63;;;7.60;99.90;;;;;;5007793;28;20469;-71
2022/02/04 09:47:02;;;;;;;6.87;4.90;;;7.60;99.90;;;;;;5023840;28;20441;-72
2022/02/04 09:49:54;;;;;;;6.90;5.67;;;7.60;99.90;;;;;;5015655;28;20467;-71
2022/02/04 10:08:20;;;;;;;5.33;3.93;;;7.60;99.90;;;;;;5014888;28;20493;-71
2022/02/04 10:14:25;;;;;;;4.17;3.53;;;7.80;99.90;;;;;;4998943;28;20942;-70
2022/02/04 10:17:15;;;;;;;5.90;3.57;;;7.70;99.90;;;;;;5017871;28;20468;-71
2022/02/04 10:20:02;;;;;;;4.20;3.10;;;7.80;99.90;;;;;;5013198;28;20465;-72
2022/02/04 10:22:49;;;;;;;4.00;3.60;;;7.80;99.90;;;;;;5015308;28;20460;-71
2022/02/04 10:25:38;;;;;;;7.53;3.63;;;7.70;99.90;;;;;;5016374;28;20568;-70
2022/02/04 10:28:28;;;;;;;4.10;3.10;;;7.70;99.90;;;;;;5018251;28;20411;-70
2022/02/04 10:31:20;;;;;;;4.57;3.57;;;7.70;99.90;;;;;;5014637;28;20467;-71
2022/02/04 10:34:10;;;;;;;3.47;2.97;;;7.70;99.90;;;;;;5014890;28;20425;-72
2022/02/04 10:37:01;;;;;;;3.93;3.00;;;7.70;99.90;;;;;;5015820;28;20473;-72
2022/02/04 10:40:00;;;;;;;4.40;3.27;;;7.70;99.90;;;;;;5012074;28;21264;-75
2022/02/04 10:42:59;;;;;;;5.23;3.60;;;7.70;99.90;;;;;;5011578;28;20943;-73
2022/02/04 10:45:58;;;;;;;4.67;3.60;;;7.70;99.90;;;;;;5013045;28;20536;-73
2022/02/04 10:52:18;;;;;;;4.00;3.57;;;7.70;99.90;;;;;;5004692;28;20500;-72
2022/02/04 10:55:40;;;;;;;4.63;3.30;;;7.80;99.90;;;;;;5016043;28;20503;-72
2022/02/04 10:58:45;;;;;;;4.60;3.67;;;7.70;99.90;;;;;;5012567;28;20461;-71
2022/02/04 11:01:37;;;;;;;3.83;2.90;;;7.70;99.90;;;;;;5006736;28;20446;-72
2022/02/04 11:04:30;;;;;;;3.87;2.77;;;7.70;99.90;;;;;;5008373;28;20483;-73
2022/02/04 11:07:37;;;;;;;5.00;3.10;;;7.60;99.90;;;;;;5005836;28;20959;-72
2022/02/04 11:10:52;;;;;;;6.70;3.30;;;7.60;99.90;;;;;;5007502;28;20476;-72
2022/02/04 11:33:04;;;;;;;4.13;3.27;;;7.60;99.90;;;;;;5016212;28;20481;-72
2022/02/04 11:35:56;;;;;;;5.00;3.37;;;7.70;99.90;;;;;;5006255;28;20459;-72
2022/02/04 11:48:11;;;;;;;4.90;3.50;;;7.70;99.90;;;;;;5013619;28;20424;-73
2022/02/04 11:51:16;;;;;;;4.90;3.43;;;7.70;99.90;;;;;;5006551;28;20476;-73
2022/02/04 11:54:31;;;;;;;4.87;3.17;;;7.70;99.90;;;;;;5024672;28;20407;-73
2022/02/04 11:57:23;;;;;;;4.53;3.13;;;7.70;99.90;;;;;;5025575;28;20425;-72
2022/02/04 12:00:23;;;;;;;4.43;3.23;;;7.70;99.90;;;;;;5006154;28;20985;-73
2022/02/04 12:03:34;;;;;;;4.40;3.37;;;7.70;99.90;;;;;;5010063;28;20447;-72
2022/02/04 12:06:29;;;;;;;5.00;3.30;;;7.70;99.90;;;;;;5021270;28;20425;-73
2022/02/04 12:09:15;;;;;;;8.57;3.37;;;7.80;99.90;;;;;;5006933;28;20461;-73
2022/02/04 12:12:00;;;;;;;5.07;3.10;;;7.90;99.90;;;;;;5015200;28;20440;-73
2022/02/04 12:14:47;;;;;;;5.30;3.10;;;7.90;99.90;;;;;;5010713;28;20427;-72
2022/02/04 12:17:38;;;;;;;3.90;2.83;;;7.90;99.90;;;;;;5013975;28;20925;-73
2022/02/04 12:20:56;;;;;;;3.73;2.63;;;8.00;99.90;;;;;;5013260;28;20470;-73
2022/02/04 12:23:49;;;;;;;3.40;2.23;;;8.00;99.90;;;;;;5004560;28;20419;-73
2022/02/04 12:26:36;;;;;;;3.27;2.50;;;8.00;99.90;;;;;;5024518;28;21058;-73
2022/02/04 12:29:27;;;;;;;4.57;2.90;;;8.10;99.90;;;;;;5007202;28;21014;-73
2022/02/04 12:32:19;;;;;;;5.00;2.87;;;8.00;99.90;;;;;;5026087;28;20770;-73
2022/02/04 12:35:05;;;;;;;3.20;2.43;;;8.00;99.90;;;;;;5012438;28;20431;-72
2022/02/04 12:37:52;;;;;;;2.87;2.37;;;8.00;99.90;;;;;;5019858;28;20448;-73
2022/02/04 12:40:37;;;;;;;6.33;3.10;;;8.00;99.90;;;;;;5007798;28;20975;-73
2022/02/04 12:43:25;;;;;;;4.03;2.60;;;8.00;99.90;;;;;;5020624;28;21069;-72
2022/02/04 12:46:10;;;;;;;3.53;2.37;;;8.00;99.90;;;;;;5016494;28;20465;-73
2022/02/04 12:49:00;;;;;;;3.50;2.60;;;8.10;99.90;;;;;;5015662;28;20468;-73
2022/02/04 12:51:49;;;;;;;3.27;2.43;;;8.10;99.90;;;;;;5018832;28;20410;-73
2022/02/04 12:54:39;;;;;;;4.70;3.07;;;8.10;99.90;;;;;;5001640;28;20451;-73
2022/02/04 12:57:35;;;;;;;3.97;2.57;;;8.10;99.90;;;;;;5002549;28;21593;-70
2022/02/04 13:00:34;;;;;;;3.37;2.50;;;8.20;99.90;;;;;;5004044;28;20470;-71
2022/02/04 13:03:31;;;;;;;3.30;2.70;;;8.10;99.90;;;;;;5014831;28;20929;-71
2022/02/04 13:12:28;;;;;;;3.20;2.10;;;8.10;99.90;;;;;;5013298;28;20472;-71
2022/02/04 13:15:15;;;;;;;4.50;2.40;;;8.10;99.90;;;;;;5013784;28;20472;-71
2022/02/04 13:18:04;;;;;;;2.77;2.10;;;8.20;99.90;;;;;;5006202;28;20450;-70
2022/02/04 13:20:51;;;;;;;2.00;1.30;;;8.20;99.90;;;;;;5016280;28;20440;-71
2022/02/04 13:23:38;;;;;;;2.30;1.53;;;8.20;99.90;;;;;;5015255;28;20897;-71
2022/02/04 13:26:25;;;;;;;2.20;1.50;;;8.30;99.90;;;;;;5010153;28;20468;-70
2022/02/04 13:29:11;;;;;;;1.80;1.20;;;8.30;99.90;;;;;;5008910;28;20833;-70
2022/02/04 13:31:56;;;;;;;2.10;1.20;;;8.30;99.90;;;;;;5012759;28;20786;-71
2022/02/04 13:34:42;;;;;;;2.10;1.20;;;8.30;99.90;;;;;;5017747;28;20412;-71
2022/02/04 13:37:33;;;;;;;2.57;1.20;;;8.40;99.90;;;;;;5011600;28;20452;-70
2022/02/04 13:40:28;;;;;;;1.70;1.00;;;8.40;99.90;;;;;;5024234;28;21026;-70
2022/02/04 13:43:22;;;;;;;1.50;0.87;;;8.40;99.90;;;;;;5008198;28;20499;-73
2022/02/04 13:46:17;;;;;;;1.80;1.00;;;8.40;99.90;;;;;;5008615;28;20818;-73
2022/02/04 13:49:17;;;;;;;1.93;0.97;;;8.40;99.90;;;;;;5011397;28;20439;-73
2022/02/04 13:52:11;;;;;;;2.27;1.10;;;8.40;99.90;;;;;;5009118;28;20427;-75
2022/02/04 13:55:12;;;;;;;1.60;0.90;;;8.40;99.90;;;;;;5010802;28;20947;-72
2022/02/04 14:01:07;;;;;;;1.97;0.90;;;8.40;99.90;;;;;;5023383;28;20449;-73
2022/02/04 14:04:01;;;;;;;1.60;0.93;;;8.40;99.90;;;;;;5016348;28;20442;-72
2022/02/04 14:06:47;;;;;;;1.83;1.00;;;8.30;99.90;;;;;;5013252;28;20519;-73
2022/02/04 14:09:37;;;;;;;2.50;1.10;;;8.30;99.90;;;;;;5025852;28;20527;-73
2022/02/04 14:12:23;;;;;;;1.60;0.90;;;8.30;99.90;;;;;;5024029;28;20958;-73
2022/02/04 14:15:10;;;;;;;3.90;0.90;;;8.30;99.90;;;;;;5015312;28;20439;-72
2022/02/04 14:17:57;;;;;;;1.60;0.90;;;8.30;99.90;;;;;;5002257;28;20442;-72
2022/02/04 14:20:45;;;;;;;1.67;0.80;;;8.30;99.90;;;;;;5023860;28;20527;-73
2022/02/04 14:23:31;;;;;;;1.63;0.83;;;8.30;99.90;;;;;;5021142;28;20475;-73
2022/02/04 14:26:23;;;;;;;1.70;0.97;;;8.20;99.90;;;;;;5017353;28;20817;-73
2022/02/04 14:29:13;;;;;;;3.27;1.47;;;8.20;99.90;;;;;;5006696;28;20860;-72
2022/02/04 14:32:05;;;;;;;2.50;0.90;;;8.20;99.90;;;;;;5026818;28;20428;-72
2022/02/04 14:35:05;;;;;;;2.00;1.27;;;8.20;99.90;;;;;;5027382;28;20484;-73
2022/02/04 14:50:36;;;;;;;1.73;1.03;;;8.20;99.90;;;;;;5016733;28;20473;-72
2022/02/04 14:53:25;;;;;;;2.53;1.20;;;8.20;99.90;;;;;;5025602;28;20472;-72
2022/02/04 15:02:27;;;;;;;1.70;1.03;;;8.20;99.90;;;;;;5000284;28;20429;-73
2022/02/04 15:05:17;;;;;;;1.70;1.00;;;8.30;99.90;;;;;;5021541;28;21233;-71
2022/02/04 15:08:09;;;;;;;1.87;1.10;;;8.30;99.90;;;;;;5007596;28;20441;-73
2022/02/04 15:10:56;;;;;;;7.30;1.00;;;8.20;99.90;;;;;;5016425;28;20575;-73
2022/02/04 15:13:42;;;;;;;1.90;1.03;;;8.20;99.90;;;;;;5013726;28;20927;-72
2022/02/04 15:16:29;;;;;;;2.33;1.13;;;8.20;99.90;;;;;;5010648;28;20441;-72
2022/02/04 15:19:16;;;;;;;3.10;1.17;;;8.20;99.90;;;;;;5025626;28;20465;-73
2022/02/04 15:22:06;;;;;;;2.70;1.20;;;8.30;99.90;;;;;;5014861;28;20792;-73
2022/02/04 15:24:56;;;;;;;2.93;1.10;;;8.30;99.90;;;;;;5016602;28;20555;-72
2022/02/04 15:27:49;;;;;;;9.10;1.13;;;8.30;99.90;;;;;;5001707;28;20903;-72
2022/02/04 15:30:39;;;;;;;3.80;1.63;;;8.30;99.90;;;;;;5002194;28;20445;-72
2022/02/04 15:33:29;;;;;;;1.80;1.10;;;8.30;99.90;;;;;;5011036;28;20765;-72
2022/02/04 15:36:23;;;;;;;3.83;1.13;;;8.30;99.90;;;;;;5016453;28;20495;-72
2022/02/04 15:39:10;;;;;;;2.50;1.20;;;8.30;99.90;;;;;;5025057;28;20430;-73
2022/02/04 15:42:00;;;;;;;3.33;1.70;;;8.30;99.90;;;;;;5005393;28;20419;-73
2022/02/04 15:44:59;;;;;;;2.30;1.30;;;8.30;99.90;;;;;;5015640;28;20442;-73
2022/02/04 15:47:57;;;;;;;7.00;1.27;;;8.20;99.90;;;;;;5012652;28;20837;-71
2022/02/04 15:50:57;;;;;;;2.77;1.87;;;8.20;99.90;;;;;;5007405;28;20552;-71
2022/02/04 15:53:58;;;;;;;1.97;1.33;;;8.30;99.90;;;;;;5021344;28;20477;-72
2022/02/04 15:56:53;;;;;;;1.70;1.10;;;8.20;99.90;;;;;;5000744;28;20990;-73
2022/02/04 15:59:59;;;;;;;1.97;1.13;;;8.20;99.90;;;;;;5007620;28;20474;-72
2022/02/04 16:03:01;;;;;;;1.63;1.00;;;8.20;99.90;;;;;;5010482;28;20438;-72
2022/02/04 16:05:48;;;;;;;2.13;1.37;;;8.20;99.90;;;;;;5000065;28;20496;-72
2022/02/04 16:08:34;;;;;;;2.53;1.20;;;8.20;99.90;;;;;;5013631;28;20761;-72
2022/02/04 16:11:33;;;;;;;2.10;1.30;;;8.20;99.90;;;;;;5004019;28;21255;-71
2022/02/04 16:14:23;;;;;;;1.80;1.00;;;8.20;99.90;;;;;;5001289;28;20923;-71
2022/02/04 16:17:14;;;;;;;2.90;1.57;;;8.20;99.90;;;;;;5000389;28;20602;-71
2022/02/04 16:20:16;;;;;;;3.60;1.80;;;8.20;99.90;;;;;;5013235;28;20915;-70
2022/02/04 16:23:07;;;;;;;1.80;1.20;;;8.10;99.90;;;;;;5004794;28;20450;-70
2022/02/04 16:26:00;;;;;;;3.00;1.30;;;8.10;99.90;;;;;;5013046;28;20997;-70
2022/02/04 16:28:47;;;;;;;2.00;1.57;;;8.10;99.90;;;;;;5017042;28;20441;-70
2022/02/04 16:31:33;;;;;;;2.05;1.05;;;8.10;99.90;;;;;;5006832;28;20424;-71
2022/02/04 16:34:19;;;;;;;1.90;1.20;;;8.10;99.90;;;;;;5064651;22;20230;-71
2022/02/04 16:37:16;;;;;;;2.67;1.30;;;8.10;99.90;;;;;;5044268;28;20444;-70
2022/02/04 16:40:05;;;;;;;2.40;1.20;;;8.00;99.90;;;;;;5061003;28;20428;-70
2022/02/04 16:42:51;;;;;;;2.73;1.30;;;8.00;99.90;;;;;;5055015;28;20494;-70
2022/02/04 16:45:37;;;;;;;3.47;2.20;;;8.10;99.90;;;;;;5052964;28;20479;-70
2022/02/04 16:48:23;;;;;;;2.50;1.60;;;8.10;99.90;;;;;;5054710;28;20438;-71
2022/02/04 16:51:10;;;;;;;2.60;1.27;;;8.10;99.90;;;;;;5063087;28;20467;-71
2022/02/04 16:53:56;;;;;;;3.77;1.40;;;8.10;99.90;;;;;;5053207;28;20589;-71
2022/02/04 16:56:41;;;;;;;2.40;1.47;;;8.10;99.90;;;;;;5048317;28;20601;-70
2022/02/04 16:59:27;;;;;;;3.00;1.80;;;8.10;99.90;;;;;;5055897;28;20424;-71
2022/02/04 17:02:14;;;;;;;3.10;1.87;;;8.10;99.90;;;;;;5056847;28;20423;-70
2022/02/04 17:05:00;;;;;;;3.20;1.90;;;8.10;99.90;;;;;;5055472;28;20419;-71
2022/02/04 17:07:53;;;;;;;2.30;1.60;;;8.10;99.90;;;;;;5042618;28;20459;-70
2022/02/04 17:10:43;;;;;;;4.20;1.93;;;8.10;99.90;;;;;;5053922;28;20419;-70
2022/02/04 17:13:29;;;;;;;3.17;1.70;;;8.20;99.90;;;;;;5049346;28;20853;-70
2022/02/04 17:16:16;;;;;;;3.50;1.50;;;8.10;99.90;;;;;;5052115;28;20448;-70
2022/02/04 17:19:04;;;;;;;2.10;1.30;;;8.10;99.90;;;;;;5053530;28;21052;-70
2022/02/04 17:21:50;;;;;;;3.30;2.07;;;8.10;99.90;;;;;;5049647;28;20503;-70
2022/02/04 17:24:36;;;;;;;3.30;1.33;;;8.10;99.90;;;;;;5047197;28;20554;-70
2022/02/04 17:27:22;;;;;;;5.00;1.60;;;8.10;99.90;;;;;;5047978;28;20484;-71
2022/02/04 17:30:11;;;;;;;3.40;1.37;;;8.10;99.90;;;;;;5049652;28;21056;-70
2022/02/04 17:32:57;;;;;;;4.27;1.70;;;8.10;99.90;;;;;;5046174;28;20448;-70
2022/02/04 17:35:44;;;;;;;1.87;1.50;;;8.10;99.90;;;;;;5054253;28;20490;-70
2022/02/04 17:38:30;;;;;;;2.57;1.47;;;8.00;99.90;;;;;;5050972;28;20416;-70
2022/02/04 17:41:18;;;;;;;2.00;1.30;;;8.10;99.90;;;;;;5053952;28;20424;-70
2022/02/04 17:44:03;;;;;;;3.00;1.90;;;8.00;99.90;;;;;;5045708;28;20855;-70
2022/02/04 17:46:51;;;;;;;2.03;1.47;;;8.10;99.90;;;;;;5046123;28;20997;-69
2022/02/04 17:49:45;;;;;;;2.30;1.50;;;8.10;99.90;;;;;;5053690;28;20424;-70
2022/02/04 17:52:39;;;;;;;1.80;1.13;;;8.10;99.90;;;;;;5053337;28;20420;-70
2022/02/04 17:55:28;;;;;;;2.50;1.63;;;8.10;99.90;;;;;;5044410;28;20452;-70
2022/02/04 17:58:25;;;;;;;1.80;1.20;;;8.10;99.90;;;;;;5050185;28;20468;-72
2022/02/04 18:01:34;;;;;;;3.30;1.63;;;8.00;99.90;;;;;;5044828;28;20447;-72
2022/02/04 18:07:24;;;;;;;2.73;1.50;;;8.00;99.90;;;;;;5047058;28;20471;-71
2022/02/04 18:10:12;;;;;;;2.07;1.20;;;8.00;99.90;;;;;;5049699;28;20505;-71
2022/02/04 18:12:58;;;;;;;2.70;1.20;;;8.10;99.90;;;;;;5045469;28;20476;-72
2022/02/04 18:15:43;;;;;;;2.50;1.47;;;8.10;99.90;;;;;;5042996;28;20532;-70
2022/02/04 18:18:29;;;;;;;2.27;1.47;;;8.10;99.90;;;;;;5044936;28;20846;-71
2022/02/04 18:21:16;;;;;;;3.53;1.77;;;8.20;99.90;;;;;;5045731;28;21060;-70
2022/02/04 18:24:02;;;;;;;1.90;1.30;;;8.20;99.90;;;;;;5043823;28;20840;-71
2022/02/04 18:26:49;;;;;;;3.00;1.60;;;8.20;99.90;;;;;;5040685;28;20500;-71
2022/02/04 18:29:34;;;;;;;1.80;1.30;;;8.20;99.90;;;;;;5042991;28;20464;-71
2022/02/04 18:32:22;;;;;;;2.43;1.43;;;8.20;99.90;;;;;;5042873;28;20455;-70
2022/02/04 18:35:09;;;;;;;2.23;1.50;;;8.30;99.90;;;;;;5040384;28;20452;-72
2022/02/04 18:38:05;;;;;;;2.70;1.70;;;8.20;99.90;;;;;;5045940;28;20455;-70
2022/02/04 18:44:11;;;;;;;1.90;1.30;;;8.20;99.90;;;;;;4983535;28;20534;-72
2022/02/04 18:47:00;;;;;;;3.23;1.40;;;8.20;99.90;;;;;;5038065;28;20629;-70
2022/02/04 18:49:51;;;;;;;2.40;1.60;;;8.20;99.90;;;;;;5044014;28;20526;-73
2022/02/04 18:52:44;;;;;;;4.40;2.00;;;8.20;99.90;;;;;;5043835;28;21099;-73
2022/02/04 18:55:44;;;;;;;2.30;1.43;;;8.30;99.90;;;;;;5040270;28;20583;-71
2022/02/04 18:58:31;;;;;;;3.17;1.70;;;8.30;99.90;;;;;;5046495;28;20452;-71
2022/02/04 19:01:19;;;;;;;2.63;1.73;;;8.30;99.90;;;;;;5055696;28;20433;-72
2022/02/04 19:04:11;;;;;;;2.83;1.83;;;8.30;99.90;;;;;;5040916;28;20484;-71
2022/02/04 19:07:01;;;;;;;2.80;1.47;;;8.30;99.90;;;;;;5045368;28;20460;-71
2022/02/04 19:09:49;;;;;;;3.30;1.70;;;8.30;99.90;;;;;;5043462;28;20445;-72
2022/02/04 19:12:42;;;;;;;2.67;2.00;;;8.30;99.90;;;;;;5044110;28;20440;-71